Aérodrome :
LOGIN :

S'inscrire | Disclaimer

   EN    FR    IT 

 










Légende :    VFR   VFR Marginal   IFR   IFR Intensif   IFR Très Intensif
Visi : 
Plafond : 
>= 8 km
>= 3000ft
5 à 8 km
1000 à 3000 ft
1500m à 5 km
500 à 1000 ft
800 à 1500m
200 à 500 ft
< 800m
< 200 ft
Symboles :   Orages  Brouillard  Fortes neiges  Fortes précipitations  Vent > 20 kt
SIGMETs :   Divers  Orages  Givrage  Turbulence  Onde Orograph.  Cendres Volcan.






- Altitude de l'aérodrome : 464 ft
- Code IATA : EVX


LFOE - Evreux

DERNIER METAR :
  • 110600Z AUTO 25005KT CAVOK 07/06 Q1011 TEMPO BKN010

METARs EXPIRÉS :
  • 110530Z AUTO 25004KT CAVOK 07/06 Q1011 TEMPO BKN010
  • 110500Z AUTO VRB03KT 9999 -RA NSC 07/06 Q1011
  • 110430Z AUTO 27005KT 9999 -RA ///TCU 07/06 Q1011
  • 110400Z AUTO 27005KT 9999 -RA FEW034/// SCT041/// OVC047/// ///TCU 07/06 Q1011
  • 110330Z AUTO 27005KT 9999 -RA FEW011/// SCT028/// BKN036/// ///TCU 07/06 Q1011 TEMPO BKN005

TAF AMD TAF LFOE
Valide du 11 à 05h jusqu'au 12 à 03h UTC


110511Z 1105/1203 26010KT 9000 -RA OVC045
BECMG 1105/1106 NSW BKN040
PROB40
TEMPO 1105/1108 BKN010
TEMPO 1111/1121 24010G20KT
TEMPO 1114/1119 4000 SHRA BKN020 BKN030TCU



MET'MAP, la Météo Aéronautique d'un coup d'oeil ! - Copyright ORBIFLY Décembre 2007 - Disclaimer

ORBIFLY MET'MAP TEAM :

Programmation & Développement : Alexandra Zaïnal
Sur une idée originale de : Baudouin d'Aumeries
Assistance à la programmation : Marc-Olivier Méhu
Soutien technique & logistique : Manuel Goepfert

Contact : metmap@orbifly.com




SOURCES & CREDITS :

   NOAA